Allendorf, Iowa
Current Conditions -  °F | °C
As of 11:55 PM on Wednesday 22 Oct 2014 (Local Time) from KSHL Reporting Station
Haze Haze  
Wind Chill: 57°   Ceiling: 400
Heat Index: 57°   Visibility: 3mi
Dew Point: 57°   Wind: 8mph
Humidity: 100%   Direction: 190°S
Pressure: 30.02"   Gusts: NA
Location:  43.41°N, 95.64°W
Report Text: KSHL 230455Z AUTO 19007KT 3SM BR BKN004 OVC008 14/14 A3002 RMK AO2 P0001
Loading
Personal Weather Stations






























Interactive Weather Map New forecast layout! Learn more

10-Day Weather Forecast

Advertisements
Track Severe Weather on mobile